createdAt,value
2019-03-31T00:04:32.515Z,101523.17
2019-03-31T00:09:27.136Z,101527.11
2019-03-31T00:14:21.712Z,101524.22
2019-03-31T00:19:15.829Z,101525.16
2019-03-31T00:24:10.426Z,101525.34
2019-03-31T00:29:05.057Z,101526.69
2019-03-31T00:33:59.614Z,101524.23
2019-03-31T00:38:54.083Z,101531.69
2019-03-31T00:43:48.820Z,101528.98
2019-03-31T00:48:43.212Z,101531.45
2019-03-31T00:53:37.801Z,101527.69
2019-03-31T00:58:32.000Z,101527.91
2019-03-31T01:03:26.455Z,101522.92
2019-03-31T01:08:21.224Z,101523.84
2019-03-31T01:13:15.846Z,101522.23
2019-03-31T01:18:10.827Z,101517.59
2019-03-31T01:23:05.688Z,101520.45
2019-03-31T01:28:00.083Z,101521.96
2019-03-31T01:32:55.214Z,101518.89
2019-03-31T01:37:50.743Z,101516.52
2019-03-31T01:42:45.241Z,101513.44
2019-03-31T01:47:39.829Z,101518.19
2019-03-31T01:52:34.196Z,101521.27
2019-03-31T01:57:28.665Z,101524.02
2019-03-31T02:02:28.831Z,101519.23
2019-03-31T02:07:23.369Z,101521.00
2019-03-31T02:12:17.767Z,101516.92
2019-03-31T02:17:12.410Z,101518.78
2019-03-31T02:22:06.863Z,101521.05
2019-03-31T02:27:01.488Z,101524.71
2019-03-31T02:31:55.998Z,101531.63
2019-03-31T02:36:50.519Z,101534.78
2019-03-31T02:41:45.034Z,101536.46
2019-03-31T02:46:40.784Z,101537.43
2019-03-31T02:51:35.393Z,101540.41
2019-03-31T02:56:30.651Z,101537.20
2019-03-31T03:01:26.030Z,101531.34
2019-03-31T03:06:21.591Z,101532.64
2019-03-31T03:11:17.489Z,101537.69
2019-03-31T03:16:18.504Z,101534.86
2019-03-31T03:21:13.040Z,101526.70
2019-03-31T03:26:07.667Z,101528.32
2019-03-31T03:31:02.430Z,101531.95
2019-03-31T03:35:57.007Z,101536.75
2019-03-31T03:40:51.473Z,101538.73
2019-03-31T03:45:46.026Z,101548.89
2019-03-31T03:50:40.585Z,101553.73
2019-03-31T03:55:35.152Z,101551.01
2019-03-31T04:00:29.603Z,101548.95
2019-03-31T04:05:23.876Z,101547.80
2019-03-31T04:11:13.283Z,101548.14
2019-03-31T04:16:07.735Z,101550.73
2019-03-31T04:21:02.394Z,101565.81
2019-03-31T04:25:56.890Z,101569.73
2019-03-31T04:30:50.959Z,101571.55
2019-03-31T04:36:04.442Z,101566.27
2019-03-31T04:40:58.701Z,101573.24
2019-03-31T04:45:53.153Z,101574.04
2019-03-31T04:50:47.471Z,101575.55
2019-03-31T04:55:42.081Z,101581.80
2019-03-31T05:00:38.974Z,101584.84
2019-03-31T05:05:34.275Z,101591.05
2019-03-31T05:10:29.009Z,101594.03
2019-03-31T05:15:23.702Z,101607.80
2019-03-31T05:20:18.194Z,101614.78
2019-03-31T05:25:12.858Z,101616.34
2019-03-31T05:30:07.440Z,101626.48
2019-03-31T05:35:01.891Z,101628.14
2019-03-31T05:39:56.575Z,101633.48
2019-03-31T05:44:51.191Z,101630.34
2019-03-31T05:49:45.740Z,101636.97
2019-03-31T05:54:40.306Z,101637.28
2019-03-31T05:59:34.736Z,101643.08
2019-03-31T06:04:33.325Z,101638.06
2019-03-31T06:09:27.673Z,101625.41
2019-03-31T06:14:22.328Z,101631.77
2019-03-31T06:19:16.919Z,101631.83
2019-03-31T06:24:11.423Z,101636.30
2019-03-31T06:29:06.697Z,101634.51
2019-03-31T06:34:01.380Z,101631.42
2019-03-31T06:38:55.720Z,101639.28
2019-03-31T06:43:50.129Z,101643.17
2019-03-31T06:48:44.526Z,101645.73
2019-03-31T06:53:38.679Z,101645.85
2019-03-31T06:58:33.061Z,101639.98
2019-03-31T07:03:27.717Z,101631.70
2019-03-31T07:08:24.341Z,101638.64
2019-03-31T07:13:18.709Z,101642.09
2019-03-31T07:18:15.910Z,101640.74
2019-03-31T07:23:09.238Z,101638.20
2019-03-31T07:28:03.439Z,101633.23
2019-03-31T07:32:59.769Z,101651.90
2019-03-31T07:37:54.790Z,101653.31
2019-03-31T07:42:51.260Z,101651.44
2019-03-31T07:47:46.185Z,101631.43
2019-03-31T07:52:40.667Z,101642.97
2019-03-31T07:57:35.133Z,101650.84
2019-03-31T08:02:29.637Z,101653.09
2019-03-31T08:07:24.151Z,101658.70
2019-03-31T08:12:18.399Z,101663.73
2019-03-31T08:17:12.854Z,101667.13
2019-03-31T08:22:09.199Z,101666.42
2019-03-31T08:27:05.591Z,101675.88
2019-03-31T08:31:59.743Z,101681.08
2019-03-31T08:36:54.340Z,101683.06
2019-03-31T08:41:48.855Z,101678.69
2019-03-31T08:46:43.154Z,101677.73
2019-03-31T08:51:38.593Z,101672.61
2019-03-31T08:56:33.287Z,101668.41
2019-03-31T09:01:27.718Z,101680.91
2019-03-31T09:06:22.315Z,101695.41
2019-03-31T09:11:16.876Z,101683.63
2019-03-31T09:16:11.410Z,101685.74
2019-03-31T09:21:05.803Z,101685.70
2019-03-31T09:25:59.963Z,101684.04
2019-03-31T09:30:54.657Z,101690.20
2019-03-31T09:35:51.843Z,101700.07
2019-03-31T09:40:46.508Z,101698.66
2019-03-31T09:45:40.835Z,101708.91
2019-03-31T09:50:35.499Z,101709.91
2019-03-31T09:55:29.802Z,101711.05
2019-03-31T10:00:47.860Z,101723.34
2019-03-31T10:05:42.505Z,101729.58
2019-03-31T10:10:38.898Z,101733.84
2019-03-31T10:15:33.089Z,101733.55
2019-03-31T10:20:31.520Z,101739.52
2019-03-31T10:25:25.246Z,101745.45
2019-03-31T10:30:30.885Z,101741.28
2019-03-31T10:35:25.627Z,101754.48
2019-03-31T10:40:21.211Z,101750.70
2019-03-31T10:45:16.707Z,101751.70
2019-03-31T10:50:11.257Z,101749.94
2019-03-31T10:55:06.504Z,101763.28
2019-03-31T11:00:01.036Z,101762.80
2019-03-31T11:04:56.774Z,101760.46
2019-03-31T11:09:51.264Z,101756.43
2019-03-31T11:14:45.713Z,101773.55
2019-03-31T11:19:40.176Z,101766.97
2019-03-31T11:24:34.721Z,101767.74
2019-03-31T11:29:29.387Z,101764.22
2019-03-31T11:34:23.911Z,101771.25
2019-03-31T11:39:17.980Z,101774.03
2019-03-31T11:44:14.018Z,101783.52
2019-03-31T11:49:08.674Z,101791.16
2019-03-31T11:54:04.109Z,101782.63
2019-03-31T11:59:00.177Z,101783.90
2019-03-31T12:03:54.648Z,101785.68
2019-03-31T12:08:49.167Z,101796.58
2019-03-31T12:13:43.589Z,101794.28
2019-03-31T12:18:38.023Z,101785.94
2019-03-31T12:23:32.392Z,101782.37
2019-03-31T12:28:26.915Z,101792.27
2019-03-31T12:33:20.952Z,101781.03
2019-03-31T12:38:15.410Z,101781.09
2019-03-31T12:43:09.529Z,101778.05
2019-03-31T12:48:03.784Z,101777.89
2019-03-31T12:52:58.092Z,101779.32
2019-03-31T12:57:52.348Z,101776.54
2019-03-31T13:02:46.588Z,101772.78
2019-03-31T13:07:40.779Z,101763.59
2019-03-31T13:12:35.432Z,101757.21
2019-03-31T13:17:29.850Z,101751.00
2019-03-31T13:22:24.404Z,101761.51
2019-03-31T13:27:18.898Z,101750.06
2019-03-31T13:32:13.006Z,101742.77
2019-03-31T13:37:07.073Z,101742.66
2019-03-31T13:42:01.355Z,101736.95
2019-03-31T13:46:55.693Z,101742.77
2019-03-31T13:51:50.107Z,101725.48
2019-03-31T13:56:47.738Z,101710.07
2019-03-31T14:01:41.140Z,101707.72
2019-03-31T14:06:35.346Z,101706.77
2019-03-31T14:11:29.732Z,101706.53
2019-03-31T14:16:28.909Z,101714.38
2019-03-31T14:21:21.903Z,101702.88
2019-03-31T14:26:16.424Z,101700.20
2019-03-31T14:31:10.941Z,101698.01
2019-03-31T14:36:05.759Z,101697.77
2019-03-31T14:41:00.389Z,101690.70
2019-03-31T14:45:54.804Z,101679.22
2019-03-31T14:50:48.846Z,101677.87
2019-03-31T14:55:43.003Z,101693.17
2019-03-31T15:00:38.034Z,101683.52
2019-03-31T15:05:32.461Z,101686.89
2019-03-31T15:10:26.801Z,101692.84
2019-03-31T15:15:20.921Z,101684.05
2019-03-31T15:20:16.914Z,101683.21
2019-03-31T15:25:11.489Z,101691.91
2019-03-31T15:30:06.577Z,101680.05
2019-03-31T15:35:00.700Z,101691.80
2019-03-31T15:39:55.006Z,101701.43
2019-03-31T15:44:49.224Z,101697.09
2019-03-31T15:49:44.423Z,101693.63
2019-03-31T15:54:38.616Z,101700.72
2019-03-31T15:59:32.625Z,101708.48
2019-03-31T16:04:26.668Z,101709.92
2019-03-31T16:09:23.764Z,101711.71
2019-03-31T16:14:15.052Z,101702.89
2019-03-31T16:19:08.297Z,101715.26
2019-03-31T16:24:02.219Z,101717.73
2019-03-31T16:28:55.378Z,101722.61
2019-03-31T16:33:48.723Z,101718.61
2019-03-31T16:38:42.256Z,101723.25
2019-03-31T16:43:35.780Z,101727.41
2019-03-31T16:48:28.998Z,101720.91
2019-03-31T16:53:22.403Z,101725.16
2019-03-31T16:58:16.012Z,101734.80
2019-03-31T17:03:10.126Z,101729.17
2019-03-31T17:08:05.214Z,101726.05
2019-03-31T17:12:58.773Z,101731.52
2019-03-31T17:17:52.001Z,101733.35
2019-03-31T17:22:45.761Z,101737.94
2019-03-31T17:27:39.168Z,101750.38
2019-03-31T17:32:32.716Z,101733.30
2019-03-31T17:37:26.617Z,101738.09
2019-03-31T17:42:20.361Z,101733.77
2019-03-31T17:47:14.251Z,101743.91
2019-03-31T17:52:07.463Z,101748.45
2019-03-31T17:57:00.852Z,101756.64
2019-03-31T18:01:54.161Z,101754.57
2019-03-31T18:06:47.593Z,101760.30
2019-03-31T18:11:40.850Z,101765.19
2019-03-31T18:16:34.563Z,101768.89
2019-03-31T18:21:28.204Z,101776.91
2019-03-31T18:26:21.858Z,101779.48
2019-03-31T18:31:15.169Z,101783.66
2019-03-31T18:36:08.902Z,101791.98
2019-03-31T18:41:03.841Z,101806.02
2019-03-31T18:45:59.168Z,101807.00
2019-03-31T18:50:52.905Z,101816.51
2019-03-31T18:56:07.480Z,101822.25
2019-03-31T19:01:21.040Z,101823.86
2019-03-31T19:06:34.336Z,101828.59
2019-03-31T19:11:53.064Z,101834.44
2019-03-31T19:16:56.483Z,101831.22
2019-03-31T19:22:16.542Z,101831.36
2019-03-31T19:27:44.679Z,101834.48
2019-03-31T19:32:59.433Z,101838.47
2019-03-31T19:38:21.052Z,101849.44
2019-03-31T19:43:24.076Z,101854.80
2019-03-31T19:48:43.023Z,101860.53
2019-03-31T19:53:54.824Z,101868.77
2019-03-31T19:59:16.760Z,101862.55
2019-03-31T20:04:22.466Z,101859.02
2019-03-31T20:09:35.266Z,101860.84
2019-03-31T20:14:53.758Z,101861.73
2019-03-31T20:20:04.863Z,101866.41
2019-03-31T20:25:26.450Z,101869.33
2019-03-31T20:30:37.672Z,101869.80
2019-03-31T20:35:49.708Z,101866.05
2019-03-31T20:40:53.414Z,101867.41
2019-03-31T20:45:46.699Z,101872.21
2019-03-31T20:50:40.065Z,101873.39
2019-03-31T20:55:33.572Z,101866.80
2019-03-31T21:00:26.833Z,101875.88
2019-03-31T21:05:20.097Z,101869.05
2019-03-31T21:10:13.690Z,101871.64
2019-03-31T21:15:07.557Z,101871.02
2019-03-31T21:20:00.868Z,101872.30
2019-03-31T21:24:54.529Z,101871.73
2019-03-31T21:29:47.760Z,101874.41
2019-03-31T21:34:41.173Z,101875.39
2019-03-31T21:39:34.533Z,101877.27
2019-03-31T21:44:27.860Z,101878.41
2019-03-31T21:49:21.039Z,101885.38
2019-03-31T21:54:14.255Z,101884.85
2019-03-31T21:59:07.462Z,101885.02
2019-03-31T22:04:00.850Z,101885.41
2019-03-31T22:08:54.306Z,101889.59
2019-03-31T22:13:47.531Z,101884.31
2019-03-31T22:18:40.712Z,101881.84
2019-03-31T22:23:34.896Z,101881.84
2019-03-31T22:28:28.120Z,101880.50
2019-03-31T22:33:21.474Z,101876.14
2019-03-31T22:38:14.568Z,101882.30
2019-03-31T22:43:08.113Z,101877.33
2019-03-31T22:48:01.350Z,101880.39
2019-03-31T22:52:55.003Z,101874.98
2019-03-31T22:57:48.236Z,101874.07
2019-03-31T23:02:41.389Z,101869.34
2019-03-31T23:07:35.816Z,101870.73
2019-03-31T23:12:29.082Z,101866.20
2019-03-31T23:17:22.278Z,101865.62
2019-03-31T23:22:15.398Z,101857.09
2019-03-31T23:27:08.611Z,101852.85
2019-03-31T23:32:05.952Z,101856.48
2019-03-31T23:37:04.297Z,101853.41
2019-03-31T23:41:57.664Z,101853.25
2019-03-31T23:46:50.805Z,101847.76
2019-03-31T23:51:43.965Z,101845.27
2019-03-31T23:56:37.096Z,101840.13
